Terminal Aerodrome Forecast
Issued by NWS

Home | Current Version | Previous Version | Text Only | Print | Product List | Glossary On
Versions: 1 2 3 4 5 6 7 8 9 10 11 12 13 14 15 16 17 18 19 20 21 22 23 24 25 26 27 28 29
000
FTUS43 KSGF 190000 CCA
TAFJLN
TAF COR
KJLN 190011Z 1900/1924 VRB03KT 6SM BR OVC015
     FM190200 VRB03KT 4SM BR OVC009
     FM190600 VRB03KT 2SM BR OVC004
     FM190800 VRB03KT 1SM BR OVC002
     FM191000 VRB03KT 1/2SM FG VV002
     FM191500 VRB04KT 2SM BR OVC004
     FM191800 09004KT 4SM BR OVC007=

USA.gov is the U.S. government's official web portal to all federal, state and local government web resources and services.